Time;durP1;ratioP1;P1;durP2;ratioP2;P2;SDS_P1;SDS_P2;PMS_P1;PMS_P2;Temp;Humidity;BMP_temperature;BMP_pressure;BME280_temperature;BME280_humidity;BME280_pressure;Samples;Min_cycle;Max_cycle;Signal;HPM_P1;HPM_P2
2021/12/30 00:01:47;;;;;;;1.92;1.13;;;18.20;58.20;;;;;;4986708;28;20027;-64
2021/12/30 00:04:13;;;;;;;2.45;1.75;;;18.20;58.20;;;;;;4987079;28;20518;-64
2021/12/30 00:06:40;;;;;;;3.40;1.40;;;18.20;58.20;;;;;;4987076;28;20041;-64
2021/12/30 00:09:10;;;;;;;1.48;1.17;;;18.20;58.10;;;;;;4989270;28;20030;-64
2021/12/30 00:11:35;;;;;;;1.67;0.80;;;18.20;58.10;;;;;;4987274;28;20026;-64
2021/12/30 00:14:01;;;;;;;1.60;1.35;;;18.20;58.10;;;;;;4985459;28;20065;-64
2021/12/30 00:16:27;;;;;;;2.97;1.60;;;18.20;58.10;;;;;;4986267;28;20395;-64
2021/12/30 00:18:52;;;;;;;2.28;1.33;;;18.20;58.10;;;;;;4984680;28;20555;-64
2021/12/30 00:21:20;;;;;;;1.70;1.05;;;18.20;58.00;;;;;;4985453;28;20022;-64
2021/12/30 00:23:45;;;;;;;1.45;1.15;;;18.20;58.00;;;;;;4984917;28;20030;-64
2021/12/30 00:26:11;;;;;;;0.95;0.80;;;18.20;58.00;;;;;;4991613;28;20025;-64
2021/12/30 00:28:36;;;;;;;4.03;1.10;;;18.20;58.00;;;;;;4985562;28;20038;-63
2021/12/30 00:31:02;;;;;;;2.33;1.10;;;18.20;58.10;;;;;;4990918;28;20029;-63
2021/12/30 00:33:28;;;;;;;1.55;0.75;;;18.20;58.00;;;;;;4984788;28;20470;-64
2021/12/30 00:35:54;;;;;;;1.90;0.88;;;18.20;58.00;;;;;;4986247;28;20383;-64
2021/12/30 00:38:19;;;;;;;1.83;0.90;;;18.20;58.10;;;;;;4984596;28;20019;-63
2021/12/30 00:40:45;;;;;;;3.22;0.98;;;18.20;58.00;;;;;;4986166;28;20046;-64
2021/12/30 00:43:10;;;;;;;5.22;2.85;;;18.20;58.00;;;;;;4982764;28;20100;-64
2021/12/30 00:45:36;;;;;;;2.50;1.02;;;18.20;58.00;;;;;;4985008;28;20041;-64
2021/12/30 00:48:03;;;;;;;2.28;1.02;;;18.20;58.00;;;;;;4984983;28;20424;-63
2021/12/30 00:50:28;;;;;;;2.95;0.85;;;18.20;58.00;;;;;;4983170;28;20023;-64
2021/12/30 00:52:54;;;;;;;2.28;0.95;;;18.20;58.00;;;;;;4986161;28;20386;-64
2021/12/30 00:55:19;;;;;;;1.17;0.77;;;18.30;58.00;;;;;;4984608;28;20054;-64
2021/12/30 00:57:45;;;;;;;1.58;1.35;;;18.20;57.90;;;;;;4986364;28;20042;-63
2021/12/30 01:00:15;;;;;;;1.38;0.93;;;18.20;58.00;;;;;;4989464;28;20035;-64
2021/12/30 01:02:41;;;;;;;1.05;0.98;;;18.30;58.00;;;;;;4983858;28;20399;-64
2021/12/30 01:05:07;;;;;;;1.45;0.90;;;18.20;58.00;;;;;;4986258;28;20022;-62
2021/12/30 01:07:32;;;;;;;1.70;0.98;;;18.30;58.00;;;;;;4984374;28;20065;-63
2021/12/30 01:09:59;;;;;;;2.83;0.90;;;18.20;57.90;;;;;;4987394;28;20056;-64
2021/12/30 01:12:24;;;;;;;1.40;0.90;;;18.30;58.00;;;;;;4987175;28;20038;-64
2021/12/30 01:14:50;;;;;;;1.77;0.85;;;18.30;58.00;;;;;;4988275;28;20612;-63
2021/12/30 01:17:28;;;;;;;1.67;0.70;;;18.30;58.00;;;;;;4987555;28;20041;-64
2021/12/30 01:19:53;;;;;;;1.25;0.80;;;18.30;58.00;;;;;;4986491;28;20084;-62
2021/12/30 01:22:26;;;;;;;1.50;0.90;;;18.30;58.00;;;;;;4987529;28;20547;-63
2021/12/30 01:24:52;;;;;;;0.95;0.80;;;18.20;57.90;;;;;;4984944;28;20118;-64
2021/12/30 01:27:17;;;;;;;0.80;0.70;;;18.30;57.90;;;;;;4983466;28;20827;-62
2021/12/30 01:29:43;;;;;;;0.80;0.60;;;18.30;57.90;;;;;;4983631;28;20572;-62
2021/12/30 01:32:09;;;;;;;1.45;0.75;;;18.30;57.90;;;;;;4966836;28;20399;-64
2021/12/30 01:34:34;;;;;;;1.65;0.90;;;18.20;57.90;;;;;;4983534;28;20034;-63
2021/12/30 01:37:01;;;;;;;2.00;0.82;;;18.30;57.90;;;;;;4985773;28;20038;-63
2021/12/30 01:39:28;;;;;;;1.25;0.80;;;18.30;57.90;;;;;;4982429;28;20042;-64
2021/12/30 01:41:53;;;;;;;0.80;0.63;;;18.30;58.50;;;;;;4984529;28;20027;-64
2021/12/30 01:44:19;;;;;;;6.60;0.85;;;18.30;57.90;;;;;;4985219;28;20491;-63
2021/12/30 01:46:45;;;;;;;1.50;0.60;;;18.30;57.90;;;;;;4984537;28;20041;-64
2021/12/30 01:49:11;;;;;;;1.35;0.70;;;18.30;57.90;;;;;;4983596;28;20031;-64
2021/12/30 01:51:37;;;;;;;1.30;0.70;;;18.30;57.90;;;;;;4984279;28;20100;-64
2021/12/30 01:54:03;;;;;;;1.20;0.73;;;18.30;57.80;;;;;;4985285;28;20026;-63
2021/12/30 01:56:28;;;;;;;2.15;0.95;;;18.30;57.90;;;;;;4982273;28;20030;-64
2021/12/30 01:58:54;;;;;;;0.80;0.55;;;18.30;57.90;;;;;;4981075;28;20030;-63
2021/12/30 02:01:20;;;;;;;1.20;0.50;;;18.30;57.80;;;;;;4983403;28;20458;-63
2021/12/30 02:03:46;;;;;;;1.98;0.68;;;18.20;57.80;;;;;;4984462;28;20254;-64
2021/12/30 02:06:11;;;;;;;1.25;0.63;;;18.30;57.90;;;;;;4986311;28;20160;-64
2021/12/30 02:08:37;;;;;;;2.97;0.70;;;18.30;57.90;;;;;;4982626;28;20027;-63
2021/12/30 02:11:02;;;;;;;1.38;0.70;;;18.30;57.90;;;;;;4988932;28;20347;-64
2021/12/30 02:13:28;;;;;;;2.42;1.35;;;18.30;57.90;;;;;;4987061;28;20334;-64
2021/12/30 02:16:00;;;;;;;1.13;0.73;;;18.20;57.90;;;;;;4982728;28;20026;-64
2021/12/30 02:18:25;;;;;;;1.65;0.55;;;18.20;57.90;;;;;;4973023;28;20098;-63
2021/12/30 02:20:53;;;;;;;0.75;0.63;;;18.20;58.00;;;;;;4981706;28;20370;-64
2021/12/30 02:23:19;;;;;;;1.15;0.60;;;18.20;58.00;;;;;;4982741;28;20382;-64
2021/12/30 02:25:45;;;;;;;0.73;0.68;;;18.20;58.00;;;;;;4983036;28;20057;-63
2021/12/30 02:28:12;;;;;;;1.38;0.63;;;18.20;58.00;;;;;;4981915;28;20042;-64
2021/12/30 02:30:38;;;;;;;2.33;0.70;;;18.20;58.10;;;;;;4983399;28;20101;-63
2021/12/30 02:33:04;;;;;;;2.30;0.70;;;18.20;58.10;;;;;;4989397;28;20109;-63
2021/12/30 02:35:29;;;;;;;1.00;0.50;;;18.10;58.10;;;;;;4983826;28;20035;-64
2021/12/30 02:37:55;;;;;;;0.75;0.60;;;18.10;58.20;;;;;;4988241;28;20081;-64
2021/12/30 02:40:28;;;;;;;1.20;0.60;;;18.10;58.20;;;;;;4982272;28;20034;-63
2021/12/30 02:42:53;;;;;;;3.05;0.75;;;18.10;58.30;;;;;;4972549;28;20084;-63
2021/12/30 02:45:19;;;;;;;0.65;0.47;;;18.10;58.50;;;;;;4982035;28;20022;-63
2021/12/30 02:47:44;;;;;;;0.68;0.50;;;18.00;58.30;;;;;;4983393;28;20139;-64
2021/12/30 02:50:10;;;;;;;1.95;0.57;;;18.00;58.40;;;;;;4983009;28;20030;-63
2021/12/30 02:52:36;;;;;;;3.15;0.73;;;18.00;58.50;;;;;;4984327;28;20045;-63
2021/12/30 02:55:02;;;;;;;2.53;0.52;;;18.00;58.50;;;;;;4967452;28;20030;-63
2021/12/30 02:57:27;;;;;;;1.25;0.60;;;18.00;58.50;;;;;;4984192;28;20416;-63
2021/12/30 02:59:52;;;;;;;0.82;0.60;;;17.90;58.80;;;;;;4983949;28;20092;-63
2021/12/30 03:02:18;;;;;;;2.65;0.95;;;17.90;59.20;;;;;;4982980;28;20027;-63
2021/12/30 03:04:43;;;;;;;0.63;0.47;;;17.90;58.60;;;;;;4983323;28;20549;-64
2021/12/30 03:07:09;;;;;;;0.40;0.30;;;17.90;58.60;;;;;;4985234;28;20022;-63
2021/12/30 03:09:34;;;;;;;0.52;0.43;;;17.80;58.60;;;;;;4983461;28;20045;-64
2021/12/30 03:12:00;;;;;;;0.52;0.40;;;17.90;58.70;;;;;;4989191;28;20054;-64
2021/12/30 03:14:26;;;;;;;0.85;0.50;;;17.80;58.70;;;;;;4986340;28;20027;-64
2021/12/30 03:16:52;;;;;;;0.70;0.40;;;17.80;58.70;;;;;;4987813;28;20077;-64
2021/12/30 03:19:17;;;;;;;2.40;0.60;;;17.80;58.70;;;;;;4989446;28;20483;-64
2021/12/30 03:21:43;;;;;;;2.17;0.40;;;17.80;58.80;;;;;;4985706;28;20483;-64
2021/12/30 03:24:08;;;;;;;0.70;0.45;;;17.80;58.90;;;;;;4994075;28;20050;-63
2021/12/30 03:26:35;;;;;;;0.55;0.40;;;17.80;58.90;;;;;;4988871;28;20026;-64
2021/12/30 03:29:00;;;;;;;0.40;0.40;;;17.70;58.90;;;;;;4987526;28;20026;-64
2021/12/30 03:31:26;;;;;;;1.00;0.50;;;17.70;59.00;;;;;;4986651;28;20031;-63
2021/12/30 03:33:51;;;;;;;1.45;0.50;;;17.70;59.00;;;;;;4985715;28;20030;-64
2021/12/30 03:36:17;;;;;;;0.77;0.38;;;17.70;58.90;;;;;;4988638;28;20387;-63
2021/12/30 03:38:44;;;;;;;1.17;0.50;;;17.80;59.00;;;;;;4983542;28;20030;-62
2021/12/30 03:41:12;;;;;;;1.02;0.50;;;17.80;59.00;;;;;;4987890;28;20042;-63
2021/12/30 03:43:37;;;;;;;0.77;0.57;;;17.80;58.90;;;;;;4987242;28;20037;-63
2021/12/30 03:46:04;;;;;;;1.15;0.50;;;17.80;58.80;;;;;;4970653;28;20034;-63
2021/12/30 03:48:34;;;;;;;0.98;0.35;;;17.80;58.80;;;;;;4990335;28;20038;-63
2021/12/30 03:51:06;;;;;;;1.15;0.40;;;17.80;58.80;;;;;;4989203;28;20049;-64
2021/12/30 03:53:37;;;;;;;0.70;0.40;;;17.80;58.80;;;;;;4974879;28;20050;-64
2021/12/30 03:56:04;;;;;;;0.95;0.47;;;17.80;58.80;;;;;;4986018;28;20050;-63
2021/12/30 03:58:29;;;;;;;1.95;0.63;;;17.80;58.70;;;;;;4989346;28;20054;-64
2021/12/30 04:00:55;;;;;;;3.08;0.40;;;17.90;58.60;;;;;;4998118;28;20038;-63
2021/12/30 04:03:20;;;;;;;1.25;0.40;;;17.90;58.60;;;;;;4991548;28;20038;-64
2021/12/30 04:05:46;;;;;;;0.73;0.50;;;17.90;58.60;;;;;;4987849;28;20110;-64
2021/12/30 04:08:12;;;;;;;1.25;0.50;;;17.90;58.50;;;;;;4985844;28;20030;-64
2021/12/30 04:10:37;;;;;;;0.65;0.50;;;18.00;58.40;;;;;;4988872;28;20058;-62
2021/12/30 04:13:04;;;;;;;2.83;0.63;;;18.00;58.30;;;;;;4987296;28;20026;-63
2021/12/30 04:15:29;;;;;;;0.52;0.30;;;18.00;58.30;;;;;;4986207;28;20027;-64
2021/12/30 04:17:55;;;;;;;0.60;0.35;;;18.00;58.20;;;;;;4987113;28;20085;-64
2021/12/30 04:20:20;;;;;;;0.60;0.38;;;18.00;58.10;;;;;;4987555;28;20574;-63
2021/12/30 04:22:46;;;;;;;1.05;0.40;;;18.10;58.10;;;;;;4986627;28;20070;-63
2021/12/30 04:25:12;;;;;;;1.50;0.52;;;18.10;58.10;;;;;;4987463;28;20362;-63
2021/12/30 04:27:38;;;;;;;0.45;0.30;;;18.10;58.00;;;;;;4986315;28;20422;-63
2021/12/30 04:30:05;;;;;;;1.65;0.65;;;18.10;57.90;;;;;;4989107;28;20031;-63
2021/12/30 04:32:30;;;;;;;0.70;0.50;;;18.10;57.90;;;;;;4989494;28;20126;-63
2021/12/30 04:34:56;;;;;;;1.88;0.40;;;18.10;57.90;;;;;;4989391;28;20027;-63
2021/12/30 04:37:21;;;;;;;2.13;0.40;;;18.10;57.80;;;;;;4988292;28;20382;-64
2021/12/30 04:39:47;;;;;;;0.90;0.40;;;18.20;57.90;;;;;;4985071;28;20092;-63
2021/12/30 04:42:13;;;;;;;0.80;0.50;;;18.20;57.80;;;;;;4983958;28;20054;-62
2021/12/30 04:44:38;;;;;;;0.50;0.30;;;18.20;57.80;;;;;;4988499;28;20034;-63
2021/12/30 04:47:05;;;;;;;1.23;0.50;;;18.20;57.80;;;;;;4985298;28;20088;-63
2021/12/30 04:49:30;;;;;;;0.63;0.40;;;18.20;57.70;;;;;;4993922;28;20101;-63
2021/12/30 04:51:56;;;;;;;1.35;0.52;;;18.20;57.70;;;;;;4984701;28;20535;-63
2021/12/30 04:54:21;;;;;;;0.40;0.40;;;18.20;57.70;;;;;;4986508;28;20035;-63
2021/12/30 04:56:47;;;;;;;0.50;0.30;;;18.20;57.60;;;;;;4984840;28;20042;-63
2021/12/30 04:59:12;;;;;;;0.43;0.40;;;18.20;57.60;;;;;;4984902;28;20084;-63
2021/12/30 05:01:38;;;;;;;0.45;0.20;;;18.20;57.60;;;;;;4984998;28;20062;-63
2021/12/30 05:04:04;;;;;;;1.40;0.38;;;18.20;57.60;;;;;;4984983;28;20034;-63
2021/12/30 05:06:31;;;;;;;0.30;0.30;;;18.20;57.50;;;;;;4983999;28;20036;-64
2021/12/30 05:08:57;;;;;;;1.45;0.73;;;18.30;57.60;;;;;;4974179;28;20022;-63
2021/12/30 05:11:22;;;;;;;1.00;0.30;;;18.30;57.50;;;;;;4984723;28;20043;-64
2021/12/30 05:13:48;;;;;;;0.85;0.43;;;18.30;57.50;;;;;;4987492;28;20029;-64
2021/12/30 05:16:15;;;;;;;1.27;0.43;;;18.30;57.50;;;;;;4985457;28;20021;-63
2021/12/30 05:18:41;;;;;;;0.65;0.40;;;18.30;57.40;;;;;;4991089;28;20096;-64
2021/12/30 05:21:07;;;;;;;1.13;0.50;;;18.30;57.40;;;;;;4985086;28;20034;-65
2021/12/30 05:23:32;;;;;;;0.90;0.30;;;18.30;57.40;;;;;;4986004;28;20038;-65
2021/12/30 05:25:58;;;;;;;2.75;0.50;;;18.30;57.40;;;;;;4985503;28;20030;-65
2021/12/30 05:28:23;;;;;;;1.52;0.50;;;18.30;58.00;;;;;;4984892;28;20038;-65
2021/12/30 05:30:49;;;;;;;1.88;0.50;;;18.30;57.40;;;;;;4983101;28;20029;-65
2021/12/30 05:33:14;;;;;;;2.90;0.57;;;18.30;57.40;;;;;;4984558;28;20022;-66
2021/12/30 05:35:40;;;;;;;0.85;0.35;;;18.30;57.50;;;;;;4985032;28;20046;-66
2021/12/30 05:38:05;;;;;;;1.23;0.50;;;18.30;57.40;;;;;;4982755;28;20030;-67
2021/12/30 05:40:32;;;;;;;0.65;0.40;;;18.30;57.50;;;;;;4984836;28;20323;-66
2021/12/30 05:42:58;;;;;;;1.10;0.32;;;18.40;57.60;;;;;;4984349;28;20026;-67
2021/12/30 05:45:24;;;;;;;3.88;0.52;;;18.30;57.50;;;;;;4983001;28;20119;-68
2021/12/30 05:47:50;;;;;;;1.23;0.60;;;18.30;57.60;;;;;;4984223;28;20039;-66
2021/12/30 05:50:26;;;;;;;5.47;0.70;;;18.30;57.60;;;;;;4983156;28;20038;-66
2021/12/30 05:52:52;;;;;;;1.15;0.35;;;18.30;57.70;;;;;;4983219;28;20037;-66
2021/12/30 05:55:17;;;;;;;4.72;1.00;;;18.30;57.80;;;;;;4985386;28;20026;-66
2021/12/30 05:57:43;;;;;;;4.43;0.60;;;18.30;57.80;;;;;;4967184;28;20471;-66
2021/12/30 06:00:10;;;;;;;3.70;0.50;;;18.30;57.90;;;;;;4987491;28;20092;-67
2021/12/30 06:02:36;;;;;;;1.08;0.50;;;18.30;58.00;;;;;;4984170;28;20026;-66
2021/12/30 06:05:01;;;;;;;2.83;0.28;;;18.30;58.10;;;;;;4989778;28;20028;-66
2021/12/30 06:07:27;;;;;;;3.17;0.85;;;18.30;58.10;;;;;;4986280;28;20034;-67
2021/12/30 06:09:52;;;;;;;1.35;0.30;;;18.30;58.20;;;;;;4986483;28;20501;-67
2021/12/30 06:12:18;;;;;;;1.98;0.43;;;18.30;58.30;;;;;;4984027;28;20493;-66
2021/12/30 06:14:43;;;;;;;4.75;1.08;;;18.30;58.30;;;;;;4985561;28;20030;-67
2021/12/30 06:19:45;;;;;;;3.40;0.47;;;18.30;58.40;;;;;;4969596;28;20039;-65
2021/12/30 06:22:11;;;;;;;2.58;0.50;;;18.30;58.40;;;;;;4979317;28;20031;-64
2021/12/30 06:24:36;;;;;;;0.93;0.50;;;18.20;58.40;;;;;;4984796;28;20065;-64
2021/12/30 06:27:02;;;;;;;2.40;0.45;;;18.20;58.40;;;;;;4983470;28;20464;-65
2021/12/30 06:29:27;;;;;;;2.95;0.60;;;18.20;58.40;;;;;;4982436;28;20035;-63
2021/12/30 06:31:53;;;;;;;1.33;0.40;;;18.20;58.40;;;;;;4983942;28;20077;-63
2021/12/30 06:34:18;;;;;;;2.15;0.52;;;18.20;58.50;;;;;;4970328;28;20390;-65
2021/12/30 06:36:44;;;;;;;2.83;0.60;;;18.20;58.50;;;;;;4982773;28;20038;-64
2021/12/30 06:39:09;;;;;;;2.53;0.50;;;18.20;58.60;;;;;;4974776;28;20470;-62
2021/12/30 06:41:35;;;;;;;2.15;0.65;;;18.10;58.50;;;;;;4983077;28;20065;-62
2021/12/30 06:44:00;;;;;;;2.03;0.45;;;18.10;58.60;;;;;;4978875;28;20031;-62
2021/12/30 06:46:26;;;;;;;0.80;0.35;;;18.10;58.70;;;;;;4966470;28;20057;-63
2021/12/30 06:48:51;;;;;;;1.50;0.63;;;18.10;58.70;;;;;;4973985;28;20029;-61
2021/12/30 06:51:23;;;;;;;2.40;0.70;;;18.10;58.70;;;;;;4974527;28;20062;-64
2021/12/30 06:53:48;;;;;;;1.17;0.50;;;18.10;58.70;;;;;;4972382;28;20018;-62
2021/12/30 06:56:14;;;;;;;1.60;0.50;;;18.00;58.60;;;;;;4971230;28;20034;-62
2021/12/30 06:58:39;;;;;;;2.05;0.40;;;18.10;58.70;;;;;;4978691;28;20030;-64
2021/12/30 07:01:05;;;;;;;1.42;0.50;;;18.00;58.60;;;;;;4989323;28;20034;-62
2021/12/30 07:03:30;;;;;;;3.53;0.40;;;18.00;58.70;;;;;;4995942;28;20466;-59
2021/12/30 07:05:56;;;;;;;2.17;0.40;;;18.00;58.70;;;;;;4978156;28;20045;-60
2021/12/30 07:08:22;;;;;;;0.80;0.50;;;18.10;58.70;;;;;;4984232;28;20966;-57
2021/12/30 07:10:47;;;;;;;0.80;0.60;;;18.10;58.70;;;;;;4976920;28;20533;-61
2021/12/30 07:13:13;;;;;;;1.20;0.50;;;18.00;58.60;;;;;;4981672;28;20031;-64
2021/12/30 07:15:38;;;;;;;2.15;0.50;;;18.10;58.70;;;;;;4989391;28;20036;-61
2021/12/30 07:18:04;;;;;;;1.75;0.60;;;18.10;58.70;;;;;;4982414;28;20038;-61
2021/12/30 07:20:29;;;;;;;1.88;0.60;;;18.00;58.60;;;;;;4976912;28;20037;-58
2021/12/30 07:22:55;;;;;;;1.27;0.45;;;18.10;58.60;;;;;;4968105;28;20105;-61
2021/12/30 07:25:20;;;;;;;1.13;0.50;;;18.10;58.60;;;;;;4992741;28;20038;-61
2021/12/30 07:27:47;;;;;;;2.22;0.50;;;18.00;58.60;;;;;;4984189;28;20084;-63
2021/12/30 07:30:12;;;;;;;1.05;0.60;;;18.00;58.60;;;;;;5001534;28;20030;-62
2021/12/30 07:32:38;;;;;;;1.13;0.52;;;18.00;58.50;;;;;;4970276;28;20026;-67
2021/12/30 07:35:04;;;;;;;2.65;0.50;;;18.00;58.50;;;;;;4989624;28;20541;-64
2021/12/30 07:37:30;;;;;;;2.42;0.43;;;18.00;58.50;;;;;;5003391;28;20530;-62
2021/12/30 07:39:55;;;;;;;0.93;0.60;;;18.00;58.50;;;;;;4983337;28;20042;-63
2021/12/30 07:42:21;;;;;;;1.52;0.50;;;18.00;58.60;;;;;;4959919;28;20086;-61
2021/12/30 07:44:46;;;;;;;0.65;0.38;;;18.00;58.60;;;;;;5011663;28;20095;-63
2021/12/30 07:47:12;;;;;;;0.60;0.40;;;18.00;58.60;;;;;;4963287;28;20050;-62
2021/12/30 07:49:37;;;;;;;0.77;0.55;;;18.00;58.60;;;;;;4982629;28;20451;-61
2021/12/30 07:52:04;;;;;;;1.80;0.52;;;18.00;58.60;;;;;;4975716;28;20046;-58
2021/12/30 07:54:29;;;;;;;1.23;0.60;;;18.00;58.70;;;;;;4990445;28;20035;-62
2021/12/30 07:56:55;;;;;;;0.75;0.60;;;18.00;58.70;;;;;;4982181;28;20398;-63
2021/12/30 07:59:20;;;;;;;3.80;0.70;;;18.00;58.80;;;;;;4980556;28;20029;-62
2021/12/30 08:01:46;;;;;;;2.85;0.40;;;18.00;58.80;;;;;;4982844;28;20022;-65
2021/12/30 08:04:11;;;;;;;1.42;0.50;;;18.00;58.90;;;;;;4986146;28;20022;-64
2021/12/30 08:06:37;;;;;;;2.58;1.00;;;18.00;58.90;;;;;;4967582;28;20488;-63
2021/12/30 08:09:02;;;;;;;2.28;0.85;;;18.00;59.00;;;;;;4962388;28;20031;-63
2021/12/30 08:11:28;;;;;;;1.63;0.55;;;18.00;59.00;;;;;;4968685;28;20022;-58
2021/12/30 08:13:53;;;;;;;2.45;0.60;;;18.00;59.10;;;;;;4984994;28;20022;-60
2021/12/30 08:16:19;;;;;;;3.92;0.73;;;18.00;59.20;;;;;;4975313;28;20384;-62
2021/12/30 08:18:44;;;;;;;2.15;0.70;;;18.00;59.40;;;;;;4985236;28;20049;-61
2021/12/30 08:21:10;;;;;;;1.70;0.80;;;18.00;59.50;;;;;;4986750;28;20110;-63
2021/12/30 08:23:35;;;;;;;2.08;0.65;;;17.90;59.50;;;;;;4981368;28;20030;-62
2021/12/30 08:26:04;;;;;;;1.83;0.75;;;18.00;59.50;;;;;;4980258;28;20034;-61
2021/12/30 08:28:30;;;;;;;7.78;2.50;;;18.00;59.50;;;;;;4968300;28;20139;-62
2021/12/30 08:30:55;;;;;;;14.18;4.68;;;18.00;59.90;;;;;;4979523;28;20480;-68
2021/12/30 08:33:21;;;;;;;12.63;4.15;;;17.90;60.20;;;;;;4974476;28;20173;-63
2021/12/30 08:35:46;;;;;;;10.27;3.67;;;17.90;60.30;;;;;;4976622;28;20037;-64
2021/12/30 08:38:13;;;;;;;12.60;3.75;;;17.90;60.20;;;;;;4978628;28;20109;-64
2021/12/30 08:40:40;;;;;;;11.38;3.70;;;17.90;60.00;;;;;;4971750;28;20496;-62
2021/12/30 08:43:10;;;;;;;8.95;3.20;;;17.90;59.90;;;;;;4975804;28;20092;-65
2021/12/30 08:45:36;;;;;;;11.43;3.60;;;18.00;59.70;;;;;;4982016;28;20031;-65
2021/12/30 08:48:02;;;;;;;10.32;3.15;;;17.90;59.60;;;;;;4976676;28;20036;-65
2021/12/30 08:50:27;;;;;;;11.30;3.65;;;17.90;59.50;;;;;;4992057;28;20031;-64
2021/12/30 08:52:53;;;;;;;9.32;3.58;;;17.90;59.40;;;;;;4972189;28;20036;-63
2021/12/30 08:55:18;;;;;;;10.73;3.25;;;17.90;59.40;;;;;;4976026;28;20511;-66
2021/12/30 08:57:44;;;;;;;9.52;2.75;;;17.90;59.30;;;;;;4969872;28;20057;-65
2021/12/30 09:00:16;;;;;;;7.60;2.55;;;17.90;59.60;;;;;;4987171;28;20045;-66
2021/12/30 09:02:42;;;;;;;10.63;2.63;;;17.90;59.80;;;;;;4967500;28;20060;-63
2021/12/30 09:05:08;;;;;;;6.95;2.42;;;17.90;59.60;;;;;;4999733;28;20380;-64
2021/12/30 09:07:33;;;;;;;9.70;2.70;;;17.90;59.50;;;;;;4978817;28;20033;-64
2021/12/30 09:09:59;;;;;;;5.38;2.10;;;17.90;59.40;;;;;;4993357;28;20057;-66
2021/12/30 09:12:24;;;;;;;6.57;2.08;;;17.90;59.20;;;;;;4968750;28;20031;-64
2021/12/30 09:14:50;;;;;;;6.57;2.38;;;17.90;59.10;;;;;;5010344;28;20084;-65
2021/12/30 09:17:16;;;;;;;10.95;2.72;;;17.90;58.90;;;;;;4968078;28;20320;-68
2021/12/30 09:19:41;;;;;;;16.60;3.60;;;17.90;58.90;;;;;;4974806;28;20138;-66
2021/12/30 09:22:07;;;;;;;12.45;3.17;;;17.90;58.90;;;;;;4986257;28;20032;-62
2021/12/30 09:24:32;;;;;;;17.30;3.33;;;17.90;58.90;;;;;;4974210;28;20026;-61
2021/12/30 09:26:58;;;;;;;22.63;4.05;;;17.90;58.90;;;;;;4986262;28;20495;-65
2021/12/30 09:29:23;;;;;;;13.05;3.58;;;17.90;58.90;;;;;;4984965;28;20035;-57
2021/12/30 09:31:49;;;;;;;11.98;3.22;;;17.90;59.00;;;;;;4986475;28;20050;-64
2021/12/30 09:34:15;;;;;;;12.68;2.65;;;17.90;59.00;;;;;;4972104;28;20033;-62
2021/12/30 09:36:41;;;;;;;19.80;3.47;;;17.90;59.20;;;;;;4985625;28;20038;-61
2021/12/30 09:39:11;;;;;;;16.45;3.03;;;17.90;59.20;;;;;;4985111;28;20023;-61
2021/12/30 09:41:37;;;;;;;13.85;2.72;;;17.90;59.30;;;;;;4984566;28;20113;-62
2021/12/30 09:44:04;;;;;;;12.70;2.72;;;17.90;59.40;;;;;;4964428;28;20035;-62
2021/12/30 09:46:30;;;;;;;12.00;2.70;;;17.90;59.40;;;;;;4984852;28;20030;-61
2021/12/30 09:48:55;;;;;;;11.75;2.13;;;17.90;59.40;;;;;;4973560;28;20022;-63
2021/12/30 09:51:21;;;;;;;9.60;2.42;;;17.90;59.50;;;;;;4967367;28;20033;-62
2021/12/30 09:53:50;;;;;;;13.73;2.92;;;17.90;59.50;;;;;;4966815;28;20050;-62
2021/12/30 09:56:16;;;;;;;6.72;2.25;;;17.90;59.50;;;;;;4971742;28;20118;-62
2021/12/30 09:58:41;;;;;;;9.68;2.50;;;17.90;59.90;;;;;;4971710;28;20121;-56
2021/12/30 10:01:07;;;;;;;11.93;3.30;;;17.90;59.60;;;;;;4976497;28;20058;-61
2021/12/30 10:03:35;;;;;;;11.35;2.40;;;17.90;59.60;;;;;;4987669;28;20072;-56
2021/12/30 10:06:08;;;;;;;8.10;2.55;;;17.90;59.70;;;;;;4977383;28;20042;-62
2021/12/30 10:08:41;;;;;;;13.50;3.08;;;17.90;59.70;;;;;;4965917;28;20030;-63
2021/12/30 10:11:12;;;;;;;11.13;2.28;;;17.90;59.70;;;;;;4991580;28;20045;-62
2021/12/30 10:13:40;;;;;;;9.02;3.20;;;17.90;59.60;;;;;;4971639;28;20045;-62
2021/12/30 10:16:12;;;;;;;13.43;2.70;;;17.90;59.70;;;;;;4987681;28;20038;-61
2021/12/30 10:18:46;;;;;;;14.77;2.75;;;17.90;59.70;;;;;;4972162;28;20266;-62
2021/12/30 10:21:19;;;;;;;9.23;2.60;;;17.90;59.80;;;;;;4987376;28;20042;-62
2021/12/30 10:23:52;;;;;;;11.23;2.65;;;17.90;59.80;;;;;;4972756;28;20030;-62
2021/12/30 10:26:18;;;;;;;10.63;2.78;;;17.90;59.90;;;;;;4983406;28;20061;-62
2021/12/30 10:28:44;;;;;;;7.53;2.30;;;17.90;59.90;;;;;;4981924;28;20053;-58
2021/12/30 10:31:12;;;;;;;11.40;2.28;;;17.90;60.00;;;;;;4987825;28;20042;-61
2021/12/30 10:33:46;;;;;;;10.55;2.80;;;17.90;60.00;;;;;;4982258;28;20068;-58
2021/12/30 10:36:26;;;;;;;9.57;2.55;;;17.90;60.00;;;;;;4991198;28;20035;-62
2021/12/30 10:38:52;;;;;;;5.50;2.28;;;17.90;60.00;;;;;;4984458;28;20026;-62
2021/12/30 10:41:21;;;;;;;9.60;2.00;;;17.90;60.00;;;;;;4978119;28;20522;-61
2021/12/30 10:43:51;;;;;;;6.68;2.67;;;17.90;60.10;;;;;;4976393;28;20034;-64
2021/12/30 10:46:26;;;;;;;8.57;2.35;;;17.90;60.10;;;;;;4983191;28;20035;-62
2021/12/30 10:49:06;;;;;;;7.65;2.35;;;17.90;60.10;;;;;;4996046;28;20081;-63
2021/12/30 10:51:38;;;;;;;9.90;3.00;;;17.90;60.70;;;;;;4983791;28;20096;-65
2021/12/30 10:54:17;;;;;;;6.07;1.90;;;17.90;60.10;;;;;;4988090;28;20110;-62
2021/12/30 10:56:44;;;;;;;8.90;2.22;;;17.90;60.10;;;;;;4987055;28;20513;-65
2021/12/30 10:59:20;;;;;;;8.90;2.20;;;17.90;60.00;;;;;;4992880;28;20053;-65
2021/12/30 11:01:51;;;;;;;6.90;2.10;;;17.90;60.00;;;;;;4977792;28;20687;-61
2021/12/30 11:04:17;;;;;;;5.78;1.98;;;17.90;60.00;;;;;;4983794;28;20117;-61
2021/12/30 11:06:43;;;;;;;6.65;2.10;;;18.00;59.90;;;;;;4990750;28;20105;-60
2021/12/30 11:09:20;;;;;;;9.25;2.35;;;18.00;59.80;;;;;;4988430;28;20022;-63
2021/12/30 11:11:50;;;;;;;6.15;1.73;;;18.00;59.70;;;;;;4997018;28;20061;-61
2021/12/30 11:14:21;;;;;;;7.82;2.15;;;18.00;59.80;;;;;;4988714;28;20769;-64
2021/12/30 11:17:16;;;;;;;5.88;1.70;;;17.90;59.80;;;;;;4986926;28;20065;-62
2021/12/30 11:19:54;;;;;;;5.15;1.40;;;17.90;59.80;;;;;;4971935;28;20547;-61
2021/12/30 11:22:21;;;;;;;6.07;2.45;;;17.90;59.90;;;;;;4969139;28;20041;-65
2021/12/30 11:24:47;;;;;;;4.68;1.80;;;17.90;59.90;;;;;;5000805;28;20034;-64
2021/12/30 11:27:13;;;;;;;6.38;2.25;;;17.80;59.90;;;;;;4971276;28;20345;-63
2021/12/30 11:29:41;;;;;;;5.00;1.73;;;17.80;60.50;;;;;;4997666;28;20185;-64
2021/12/30 11:32:07;;;;;;;6.00;1.80;;;17.80;60.00;;;;;;4982288;28;20057;-63
2021/12/30 11:34:33;;;;;;;4.47;1.65;;;17.80;60.00;;;;;;4986983;28;20491;-61
2021/12/30 11:36:58;;;;;;;3.88;1.25;;;17.80;60.10;;;;;;4983467;28;20058;-58
2021/12/30 11:39:24;;;;;;;2.97;1.30;;;17.80;60.00;;;;;;4992287;28;20053;-61
2021/12/30 11:41:59;;;;;;;4.18;1.48;;;17.80;60.10;;;;;;4984426;28;20507;-64
2021/12/30 11:44:39;;;;;;;7.25;1.50;;;17.80;60.10;;;;;;4964271;28;20030;-62
2021/12/30 11:47:05;;;;;;;3.80;1.63;;;17.80;60.10;;;;;;4960986;28;20030;-62
2021/12/30 11:49:50;;;;;;;4.28;1.20;;;17.80;60.00;;;;;;5000787;28;20184;-63
2021/12/30 11:52:50;;;;;;;3.78;1.33;;;17.80;60.10;;;;;;4966754;28;20030;-61
2021/12/30 11:55:53;;;;;;;2.25;1.15;;;17.80;60.00;;;;;;5002407;28;20037;-63
2021/12/30 11:58:40;;;;;;;5.50;1.73;;;17.80;60.00;;;;;;4972928;28;20109;-66
2021/12/30 12:01:24;;;;;;;3.10;1.40;;;17.80;60.00;;;;;;4975953;28;20034;-64
2021/12/30 12:03:52;;;;;;;7.65;1.80;;;17.80;60.00;;;;;;4984350;28;20030;-63
2021/12/30 12:06:24;;;;;;;3.30;1.50;;;17.80;60.10;;;;;;4985077;28;20026;-63
2021/12/30 12:08:50;;;;;;;2.60;1.00;;;17.80;60.10;;;;;;4978860;28;20026;-62
2021/12/30 12:11:24;;;;;;;1.73;1.10;;;17.80;60.10;;;;;;4989693;28;20034;-61
2021/12/30 12:13:50;;;;;;;4.32;0.90;;;17.80;60.00;;;;;;4981215;28;20026;-61
2021/12/30 12:16:36;;;;;;;2.25;1.08;;;17.90;60.00;;;;;;4979875;28;20031;-64
2021/12/30 12:19:07;;;;;;;3.08;0.88;;;17.90;60.00;;;;;;4991730;23;20392;-58
2021/12/30 12:21:57;;;;;;;2.33;0.90;;;17.80;59.80;;;;;;4984750;28;20061;-56
2021/12/30 12:24:22;;;;;;;3.65;1.02;;;17.80;59.80;;;;;;4981026;28;20053;-56
2021/12/30 12:26:49;;;;;;;2.40;1.00;;;17.90;59.90;;;;;;4976072;28;20051;-57
2021/12/30 12:29:44;;;;;;;1.83;0.77;;;17.80;59.80;;;;;;4972297;28;20027;-56
2021/12/30 12:32:14;;;;;;;2.33;0.95;;;17.80;59.70;;;;;;4986463;28;20029;-55
2021/12/30 12:34:40;;;;;;;2.20;0.77;;;17.80;59.70;;;;;;4964537;28;20045;-56
2021/12/30 12:37:29;;;;;;;4.05;1.30;;;17.80;59.80;;;;;;4983819;28;20671;-57
2021/12/30 12:40:05;;;;;;;5.25;1.15;;;17.90;60.20;;;;;;4983349;28;20337;-56
2021/12/30 12:42:42;;;;;;;2.20;1.08;;;17.80;60.20;;;;;;4981702;28;20448;-59
2021/12/30 12:45:22;;;;;;;2.85;0.85;;;17.80;60.40;;;;;;4974002;28;20105;-58
2021/12/30 12:48:08;;;;;;;2.22;0.90;;;17.80;60.50;;;;;;4983054;28;20456;-57
2021/12/30 12:50:37;;;;;;;;;;;17.80;60.70;;;;;;4976969;28;20018;-55